createdAt,value
2017-12-14T00:00:11.824Z,73.27
2017-12-14T00:01:13.704Z,74.03
2017-12-14T00:02:15.526Z,73.37
2017-12-14T00:03:17.347Z,74.32
2017-12-14T00:04:19.227Z,73.94
2017-12-14T00:05:21.109Z,74.13
2017-12-14T00:06:22.994Z,74.32
2017-12-14T00:07:37.141Z,74.22
2017-12-14T00:08:39.014Z,73.94
2017-12-14T00:09:40.887Z,72.99
2017-12-14T00:10:42.770Z,73.18
2017-12-14T00:11:44.585Z,74.22
2017-12-14T00:12:46.394Z,74.22
2017-12-14T00:13:48.261Z,74.03
2017-12-14T00:14:50.142Z,74.41
2017-12-14T00:15:52.017Z,74.13
2017-12-14T00:17:06.162Z,73.27
2017-12-14T00:18:08.043Z,73.84
2017-12-14T00:19:09.921Z,73.18
2017-12-14T00:20:11.792Z,73.94
2017-12-14T00:21:13.601Z,73.75
2017-12-14T00:22:15.423Z,73.27
2017-12-14T00:23:17.297Z,74.51
2017-12-14T00:24:19.168Z,74.60
2017-12-14T00:25:21.238Z,74.32
2017-12-14T00:26:35.381Z,74.13
2017-12-14T00:27:37.250Z,73.94
2017-12-14T00:28:39.121Z,74.03
2017-12-14T00:29:41.021Z,74.51
2017-12-14T00:30:42.813Z,73.79
2017-12-14T00:31:44.624Z,74.26
2017-12-14T00:32:46.508Z,73.69
2017-12-14T00:33:48.353Z,72.93
2017-12-14T00:34:50.164Z,73.22
2017-12-14T00:36:04.346Z,72.64
2017-12-14T00:37:06.216Z,71.80
2017-12-14T00:38:08.088Z,72.27
2017-12-14T00:39:09.971Z,72.08
2017-12-14T00:40:11.782Z,72.17
2017-12-14T00:41:13.598Z,72.17
2017-12-14T00:42:15.468Z,71.32
2017-12-14T00:43:17.349Z,72.08
2017-12-14T00:44:19.231Z,73.50
2017-12-14T00:45:33.431Z,74.16
2017-12-14T00:46:35.253Z,72.93
2017-12-14T00:47:37.126Z,72.36
2017-12-14T00:48:39.007Z,71.51
2017-12-14T00:49:40.817Z,71.80
2017-12-14T00:50:42.629Z,72.08
2017-12-14T00:51:44.515Z,72.08
2017-12-14T00:52:46.399Z,72.55
2017-12-14T00:53:48.279Z,73.41
2017-12-14T00:55:02.436Z,73.79
2017-12-14T00:56:04.317Z,73.22
2017-12-14T00:57:06.197Z,73.97
2017-12-14T00:58:08.078Z,73.79
2017-12-14T00:59:09.902Z,75.21
2017-12-14T01:00:11.725Z,75.59
2017-12-14T01:01:13.609Z,74.83
2017-12-14T01:02:15.480Z,74.73
2017-12-14T01:03:17.368Z,74.83
2017-12-14T01:04:31.510Z,74.73
2017-12-14T01:05:33.394Z,74.83
2017-12-14T01:06:35.276Z,74.73
2017-12-14T01:07:37.148Z,75.02
2017-12-14T01:08:38.969Z,75.87
2017-12-14T01:09:40.793Z,75.31
2017-12-14T01:10:42.673Z,74.83
2017-12-14T01:11:44.556Z,75.87
2017-12-14T01:12:46.440Z,76.06
2017-12-14T01:14:00.598Z,74.92
2017-12-14T01:15:02.484Z,75.21
2017-12-14T01:16:04.365Z,74.92
2017-12-14T01:17:06.238Z,74.73
2017-12-14T01:18:08.058Z,75.02
2017-12-14T01:19:09.869Z,75.02
2017-12-14T01:20:11.754Z,75.11
2017-12-14T01:21:13.628Z,75.21
2017-12-14T01:22:15.496Z,74.54
2017-12-14T01:23:29.703Z,75.40
2017-12-14T01:24:31.574Z,75.11
2017-12-14T01:25:33.457Z,74.20
2017-12-14T01:26:35.336Z,73.54
2017-12-14T01:27:37.141Z,74.01
2017-12-14T01:28:38.953Z,74.45
2017-12-14T01:29:40.838Z,74.64
2017-12-14T01:30:42.708Z,74.20
2017-12-14T01:31:44.592Z,74.26
2017-12-14T01:32:58.800Z,74.16
2017-12-14T01:34:00.684Z,73.79
2017-12-14T01:35:02.552Z,73.92
2017-12-14T01:36:04.432Z,74.58
2017-12-14T01:37:06.253Z,75.43
2017-12-14T01:38:08.064Z,75.05
2017-12-14T01:39:09.946Z,74.68
2017-12-14T01:40:11.828Z,74.11
2017-12-14T01:41:13.709Z,74.01
2017-12-14T01:42:27.905Z,74.20
2017-12-14T01:43:29.788Z,74.07
2017-12-14T01:44:31.670Z,74.16
2017-12-14T01:45:33.541Z,73.60
2017-12-14T01:46:35.354Z,73.60
2017-12-14T01:47:37.164Z,74.26
2017-12-14T01:48:39.046Z,73.97
2017-12-14T01:49:40.927Z,75.02
2017-12-14T01:50:42.810Z,74.83
2017-12-14T01:51:56.958Z,74.92
2017-12-14T01:52:58.837Z,76.06
2017-12-14T01:54:00.718Z,75.87
2017-12-14T01:55:02.605Z,77.58
2017-12-14T01:56:04.412Z,78.72
2017-12-14T01:57:06.234Z,79.38
2017-12-14T01:58:08.117Z,80.24
2017-12-14T01:59:09.986Z,80.99
2017-12-14T02:00:11.867Z,81.18
2017-12-14T02:01:26.066Z,82.32
2017-12-14T02:02:27.937Z,83.08
2017-12-14T02:03:29.808Z,83.36
2017-12-14T02:04:31.693Z,83.74
2017-12-14T02:05:33.500Z,85.07
2017-12-14T02:06:35.310Z,86.02
2017-12-14T02:07:37.186Z,87.06
2017-12-14T02:08:39.056Z,87.02
2017-12-14T02:09:40.938Z,88.25
2017-12-14T02:10:55.095Z,89.01
2017-12-14T02:11:56.981Z,89.67
2017-12-14T02:12:58.855Z,89.86
2017-12-14T02:14:00.727Z,89.11
2017-12-14T02:15:02.546Z,90.24
2017-12-14T02:16:04.360Z,91.09
2017-12-14T02:17:06.237Z,92.42
2017-12-14T02:18:08.108Z,92.42
2017-12-14T02:19:09.980Z,92.90
2017-12-14T02:20:24.138Z,93.75
2017-12-14T02:21:26.021Z,94.79
2017-12-14T02:22:27.905Z,94.98
2017-12-14T02:23:29.788Z,94.98
2017-12-14T02:24:31.617Z,95.07
2017-12-14T02:25:33.422Z,94.60
2017-12-14T02:26:35.294Z,94.51
2017-12-14T02:27:37.167Z,94.51
2017-12-14T02:28:39.041Z,94.60
2017-12-14T02:29:53.187Z,94.60
2017-12-14T02:30:55.072Z,95.17
2017-12-14T02:31:56.946Z,95.65
2017-12-14T02:32:58.816Z,95.65
2017-12-14T02:34:00.638Z,95.45
2017-12-14T02:35:02.451Z,95.17
2017-12-14T02:36:04.324Z,95.36
2017-12-14T02:37:06.207Z,96.31
2017-12-14T02:38:08.092Z,96.12
2017-12-14T02:39:22.237Z,96.78
2017-12-14T02:40:24.110Z,96.50
2017-12-14T02:41:25.997Z,96.31
2017-12-14T02:42:27.870Z,96.69
2017-12-14T02:43:29.684Z,96.12
2017-12-14T02:44:31.504Z,96.22
2017-12-14T02:45:33.380Z,96.12
2017-12-14T02:46:35.253Z,96.31
2017-12-14T02:47:37.128Z,96.87
2017-12-14T02:48:51.276Z,96.07
2017-12-14T02:49:53.158Z,96.26
2017-12-14T02:50:55.029Z,96.83
2017-12-14T02:51:56.902Z,98.06
2017-12-14T02:52:58.724Z,98.06
2017-12-14T02:54:00.545Z,97.73
2017-12-14T02:55:02.426Z,97.45
2017-12-14T02:56:04.308Z,97.83
2017-12-14T02:57:06.190Z,97.16
2017-12-14T02:58:20.390Z,96.87
2017-12-14T02:59:22.264Z,97.92
2017-12-14T03:00:24.131Z,97.92
2017-12-14T03:01:26.015Z,96.87
2017-12-14T03:02:27.862Z,96.78
2017-12-14T03:03:29.639Z,96.87
2017-12-14T03:04:31.509Z,97.07
2017-12-14T03:05:33.391Z,97.26
2017-12-14T03:06:35.265Z,98.11
2017-12-14T03:07:49.409Z,97.64
2017-12-14T03:08:51.279Z,97.45
2017-12-14T03:09:53.160Z,97.45
2017-12-14T03:10:55.042Z,97.45
2017-12-14T03:11:56.894Z,96.87
2017-12-14T03:12:58.716Z,96.87
2017-12-14T03:14:00.525Z,96.78
2017-12-14T03:15:02.402Z,96.69
2017-12-14T03:16:04.268Z,97.07
2017-12-14T03:17:18.473Z,96.03
2017-12-14T03:18:20.354Z,95.93
2017-12-14T03:19:22.226Z,96.12
2017-12-14T03:20:24.111Z,97.02
2017-12-14T03:21:25.921Z,97.11
2017-12-14T03:22:27.740Z,97.45
2017-12-14T03:23:29.612Z,97.83
2017-12-14T03:24:31.494Z,97.73
2017-12-14T03:25:33.377Z,97.35
2017-12-14T03:26:47.522Z,97.73
2017-12-14T03:27:49.392Z,96.78
2017-12-14T03:28:51.272Z,96.69
2017-12-14T03:29:53.161Z,97.16
2017-12-14T03:30:54.969Z,96.59
2017-12-14T03:31:56.778Z,96.59
2017-12-14T03:32:58.661Z,97.07
2017-12-14T03:34:00.542Z,97.07
2017-12-14T03:35:02.421Z,96.87
2017-12-14T03:36:16.564Z,96.87
2017-12-14T03:37:18.444Z,97.07
2017-12-14T03:38:20.494Z,96.78
2017-12-14T03:39:22.388Z,96.12
2017-12-14T03:40:24.285Z,96.12
2017-12-14T03:41:26.161Z,96.87
2017-12-14T03:42:28.005Z,96.78
2017-12-14T03:43:29.886Z,96.12
2017-12-14T03:44:31.759Z,96.17
2017-12-14T03:45:45.904Z,95.50
2017-12-14T03:46:47.785Z,95.41
2017-12-14T03:47:49.666Z,95.69
2017-12-14T03:48:51.538Z,95.12
2017-12-14T03:49:53.359Z,94.79
2017-12-14T03:50:55.174Z,94.93
2017-12-14T03:51:57.046Z,95.41
2017-12-14T03:52:58.918Z,94.84
2017-12-14T03:54:00.793Z,95.12
2017-12-14T03:55:14.986Z,95.22
2017-12-14T03:56:16.857Z,95.12
2017-12-14T03:57:18.738Z,95.12
2017-12-14T03:58:20.611Z,94.56
2017-12-14T03:59:22.434Z,94.56
2017-12-14T04:00:24.256Z,94.46
2017-12-14T04:01:26.138Z,94.18
2017-12-14T04:02:28.023Z,94.37
2017-12-14T04:03:29.897Z,94.37
2017-12-14T04:04:44.044Z,94.37
2017-12-14T04:05:45.914Z,95.03
2017-12-14T04:06:47.797Z,94.56
2017-12-14T04:07:49.679Z,94.37
2017-12-14T04:08:51.504Z,94.56
2017-12-14T04:09:53.325Z,94.37
2017-12-14T04:10:55.204Z,94.46
2017-12-14T04:11:57.088Z,94.18
2017-12-14T04:12:58.960Z,93.41
2017-12-14T04:14:13.107Z,93.70
2017-12-14T04:15:14.988Z,93.51
2017-12-14T04:16:16.866Z,93.41
2017-12-14T04:17:18.753Z,92.94
2017-12-14T04:18:20.562Z,93.80
2017-12-14T04:19:22.373Z,93.89
2017-12-14T04:20:24.256Z,93.61
2017-12-14T04:21:26.128Z,93.61
2017-12-14T04:22:28.004Z,93.51
2017-12-14T04:23:42.150Z,93.13
2017-12-14T04:24:44.021Z,93.32
2017-12-14T04:25:45.899Z,93.32
2017-12-14T04:26:47.767Z,92.94
2017-12-14T04:27:49.580Z,92.94
2017-12-14T04:28:51.406Z,93.61
2017-12-14T04:29:53.272Z,92.71
2017-12-14T04:30:55.153Z,93.37
2017-12-14T04:31:57.039Z,93.18
2017-12-14T04:33:11.186Z,93.08
2017-12-14T04:34:13.068Z,92.71
2017-12-14T04:35:14.950Z,92.80
2017-12-14T04:36:16.822Z,92.71
2017-12-14T04:37:18.635Z,92.52
2017-12-14T04:38:20.457Z,92.71
2017-12-14T04:39:22.340Z,92.61
2017-12-14T04:40:24.209Z,92.57
2017-12-14T04:41:26.086Z,92.80
2017-12-14T04:42:40.231Z,92.80
2017-12-14T04:43:42.160Z,92.76
2017-12-14T04:44:43.974Z,92.76
2017-12-14T04:45:45.846Z,92.66
2017-12-14T04:46:47.659Z,92.71
2017-12-14T04:47:49.470Z,92.28
2017-12-14T04:48:51.352Z,92.76
2017-12-14T04:49:53.235Z,92.66
2017-12-14T04:50:55.106Z,92.28
2017-12-14T04:52:09.255Z,92.47
2017-12-14T04:53:11.127Z,93.04
2017-12-14T04:54:12.997Z,93.32
2017-12-14T04:55:14.879Z,93.32
2017-12-14T04:56:16.690Z,93.32
2017-12-14T04:57:18.503Z,93.51
2017-12-14T04:58:20.374Z,93.32
2017-12-14T04:59:22.246Z,93.23
2017-12-14T05:00:24.129Z,92.38
2017-12-14T05:01:38.494Z,92.66
2017-12-14T05:02:40.526Z,92.85
2017-12-14T05:03:42.505Z,93.23
2017-12-14T05:04:44.377Z,93.13
2017-12-14T05:05:46.189Z,92.76
2017-12-14T05:06:48.000Z,92.66
2017-12-14T05:07:49.872Z,92.99
2017-12-14T05:08:51.753Z,92.71
2017-12-14T05:09:53.626Z,92.04
2017-12-14T05:11:07.775Z,91.99
2017-12-14T05:12:09.656Z,91.71
2017-12-14T05:13:11.536Z,92.28
2017-12-14T05:14:13.408Z,92.76
2017-12-14T05:15:15.416Z,92.14
2017-12-14T05:16:17.238Z,92.76
2017-12-14T05:17:19.149Z,92.18
2017-12-14T05:18:20.994Z,92.28
2017-12-14T05:19:22.865Z,91.90
2017-12-14T05:20:37.072Z,92.18
2017-12-14T05:21:38.945Z,91.90
2017-12-14T05:22:40.825Z,92.76
2017-12-14T05:23:42.709Z,92.28
2017-12-14T05:24:44.520Z,91.80
2017-12-14T05:25:46.344Z,92.18
2017-12-14T05:26:48.211Z,92.18
2017-12-14T05:27:50.092Z,91.61
2017-12-14T05:28:51.977Z,92.28
2017-12-14T05:30:06.123Z,91.56
2017-12-14T05:31:08.006Z,91.99
2017-12-14T05:32:09.886Z,91.85
2017-12-14T05:33:11.770Z,92.23
2017-12-14T05:34:13.581Z,92.33
2017-12-14T05:35:15.405Z,91.28
2017-12-14T05:36:17.274Z,91.00
2017-12-14T05:37:19.157Z,90.81
2017-12-14T05:38:20.993Z,90.43
2017-12-14T05:39:35.140Z,90.67
2017-12-14T05:40:37.013Z,91.33
2017-12-14T05:41:38.895Z,91.56
2017-12-14T05:42:40.777Z,91.00
2017-12-14T05:43:42.592Z,90.90
2017-12-14T05:44:44.415Z,90.81
2017-12-14T05:45:46.286Z,91.09
2017-12-14T05:46:48.156Z,90.95
2017-12-14T05:47:50.030Z,90.90
2017-12-14T05:49:04.176Z,91.00
2017-12-14T05:50:06.059Z,91.33
2017-12-14T05:51:07.940Z,91.47
2017-12-14T05:52:09.812Z,91.38
2017-12-14T05:53:11.635Z,91.47
2017-12-14T05:54:13.457Z,91.09
2017-12-14T05:55:15.339Z,90.90
2017-12-14T05:56:17.210Z,91.38
2017-12-14T05:57:19.081Z,91.38
2017-12-14T05:58:33.226Z,91.00
2017-12-14T05:59:35.109Z,91.38
2017-12-14T06:00:37.000Z,91.47
2017-12-14T06:01:38.874Z,91.38
2017-12-14T06:02:40.684Z,90.71
2017-12-14T06:03:42.507Z,90.90
2017-12-14T06:04:44.388Z,91.00
2017-12-14T06:05:46.272Z,90.90
2017-12-14T06:06:48.143Z,90.14
2017-12-14T06:08:02.298Z,90.52
2017-12-14T06:09:04.162Z,90.62
2017-12-14T06:10:06.046Z,90.52
2017-12-14T06:11:07.928Z,90.00
2017-12-14T06:12:09.740Z,90.48
2017-12-14T06:13:11.562Z,90.48
2017-12-14T06:14:13.432Z,90.29
2017-12-14T06:15:15.313Z,90.76
2017-12-14T06:16:17.187Z,90.29
2017-12-14T06:17:31.334Z,90.86
2017-12-14T06:18:33.207Z,91.33
2017-12-14T06:19:35.077Z,91.71
2017-12-14T06:20:36.961Z,90.95
2017-12-14T06:21:38.772Z,90.86
2017-12-14T06:22:40.594Z,90.29
2017-12-14T06:23:42.466Z,90.48
2017-12-14T06:24:44.349Z,90.76
2017-12-14T06:25:46.222Z,90.76
2017-12-14T06:27:00.367Z,90.38
2017-12-14T06:28:02.240Z,89.91
2017-12-14T06:29:04.155Z,90.38
2017-12-14T06:30:06.029Z,90.29
2017-12-14T06:31:07.841Z,89.91
2017-12-14T06:32:09.663Z,90.67
2017-12-14T06:33:11.537Z,90.86
2017-12-14T06:34:13.419Z,90.38
2017-12-14T06:35:15.293Z,90.48
2017-12-14T06:36:29.441Z,90.62
2017-12-14T06:37:31.322Z,91.09
2017-12-14T06:38:33.204Z,90.81
2017-12-14T06:39:35.078Z,90.62
2017-12-14T06:40:36.903Z,91.00
2017-12-14T06:41:38.716Z,90.62
2017-12-14T06:42:40.588Z,91.00
2017-12-14T06:43:42.459Z,91.00
2017-12-14T06:44:44.343Z,90.52
2017-12-14T06:45:58.491Z,90.62
2017-12-14T06:47:00.378Z,89.95
2017-12-14T06:48:02.249Z,90.24
2017-12-14T06:49:04.132Z,90.33
2017-12-14T06:50:05.945Z,90.24
2017-12-14T06:51:07.771Z,90.05
2017-12-14T06:52:09.656Z,89.95
2017-12-14T06:53:11.531Z,89.76
2017-12-14T06:54:13.416Z,89.48
2017-12-14T06:55:27.573Z,88.43
2017-12-14T06:56:29.456Z,88.53
2017-12-14T06:57:31.339Z,88.43
2017-12-14T06:58:33.227Z,89.67
2017-12-14T06:59:35.053Z,88.72
2017-12-14T07:00:36.878Z,88.53
2017-12-14T07:01:38.765Z,89.05
2017-12-14T07:02:40.639Z,88.86
2017-12-14T07:03:42.516Z,88.57
2017-12-14T07:04:56.666Z,88.48
2017-12-14T07:05:58.544Z,88.48
2017-12-14T07:07:00.418Z,88.10
2017-12-14T07:08:02.306Z,88.20
2017-12-14T07:09:04.122Z,88.01
2017-12-14T07:10:05.949Z,88.67
2017-12-14T07:11:07.825Z,88.48
2017-12-14T07:12:09.714Z,88.48
2017-12-14T07:13:11.587Z,88.48
2017-12-14T07:14:25.738Z,88.29
2017-12-14T07:15:27.614Z,88.10
2017-12-14T07:16:29.499Z,87.72
2017-12-14T07:17:31.374Z,87.24
2017-12-14T07:18:33.202Z,87.34
2017-12-14T07:19:35.026Z,87.53
2017-12-14T07:20:36.911Z,87.72
2017-12-14T07:21:38.797Z,87.43
2017-12-14T07:22:40.674Z,87.53
2017-12-14T07:23:54.833Z,87.24
2017-12-14T07:24:56.711Z,86.49
2017-12-14T07:25:58.594Z,86.96
2017-12-14T07:27:00.481Z,86.87
2017-12-14T07:28:02.308Z,86.68
2017-12-14T07:29:04.134Z,86.77
2017-12-14T07:30:06.016Z,86.58
2017-12-14T07:31:07.884Z,87.05
2017-12-14T07:32:09.761Z,87.05
2017-12-14T07:33:23.913Z,87.43
2017-12-14T07:34:25.789Z,87.43
2017-12-14T07:35:27.674Z,87.24
2017-12-14T07:36:29.551Z,87.05
2017-12-14T07:37:31.368Z,87.43
2017-12-14T07:38:33.192Z,87.43
2017-12-14T07:39:35.078Z,87.24
2017-12-14T07:40:36.954Z,87.34
2017-12-14T07:41:38.831Z,86.68
2017-12-14T07:42:52.982Z,86.87
2017-12-14T07:43:54.857Z,86.77
2017-12-14T07:44:56.742Z,86.58
2017-12-14T07:45:58.618Z,86.68
2017-12-14T07:47:00.433Z,86.77
2017-12-14T07:48:02.249Z,86.34
2017-12-14T07:49:04.128Z,86.24
2017-12-14T07:50:06.012Z,86.53
2017-12-14T07:51:07.888Z,85.82
2017-12-14T07:52:22.088Z,85.58
2017-12-14T07:53:23.965Z,86.34
2017-12-14T07:54:25.840Z,86.24
2017-12-14T07:55:27.726Z,86.24
2017-12-14T07:56:29.553Z,86.34
2017-12-14T07:57:31.380Z,86.53
2017-12-14T07:58:33.255Z,86.34
2017-12-14T07:59:35.132Z,86.24
2017-12-14T08:00:37.021Z,86.24
2017-12-14T08:01:51.172Z,85.77
2017-12-14T08:02:53.050Z,85.49
2017-12-14T08:03:54.933Z,85.58
2017-12-14T08:04:56.821Z,86.15
2017-12-14T08:05:58.648Z,85.58
2017-12-14T08:07:00.473Z,86.30
2017-12-14T08:08:02.349Z,86.20
2017-12-14T08:09:04.226Z,86.77
2017-12-14T08:10:06.102Z,86.63
2017-12-14T08:11:20.264Z,87.48
2017-12-14T08:12:22.139Z,87.48
2017-12-14T08:13:24.025Z,86.63
2017-12-14T08:14:25.902Z,86.72
2017-12-14T08:15:27.728Z,86.63
2017-12-14T08:16:29.555Z,86.43
2017-12-14T08:17:31.430Z,86.15
2017-12-14T08:18:33.317Z,86.24
2017-12-14T08:19:35.194Z,86.15
2017-12-14T08:20:49.356Z,86.05
2017-12-14T08:21:51.233Z,86.05
2017-12-14T08:22:53.121Z,85.30
2017-12-14T08:23:54.996Z,85.49
2017-12-14T08:24:56.825Z,85.68
2017-12-14T08:25:58.651Z,85.58
2017-12-14T08:27:00.542Z,85.96
2017-12-14T08:28:02.427Z,85.49
2017-12-14T08:29:04.316Z,85.39
2017-12-14T08:30:18.467Z,85.01
2017-12-14T08:31:20.358Z,84.44
2017-12-14T08:32:22.245Z,85.43
2017-12-14T08:33:24.132Z,85.05
2017-12-14T08:34:25.949Z,84.67
2017-12-14T08:35:27.768Z,84.29
2017-12-14T08:36:29.644Z,83.82
2017-12-14T08:37:31.531Z,84.01
2017-12-14T08:38:33.421Z,84.20
2017-12-14T08:39:47.576Z,83.62
2017-12-14T08:40:49.452Z,83.82
2017-12-14T08:41:51.337Z,83.82
2017-12-14T08:42:53.216Z,84.01
2017-12-14T08:43:55.046Z,83.91
2017-12-14T08:44:56.864Z,84.44
2017-12-14T08:45:58.739Z,84.44
2017-12-14T08:47:00.628Z,84.82
2017-12-14T08:48:02.508Z,85.11
2017-12-14T08:49:16.670Z,85.30
2017-12-14T08:50:18.547Z,85.11
2017-12-14T08:51:20.431Z,85.11
2017-12-14T08:52:22.309Z,85.20
2017-12-14T08:53:24.137Z,85.01
2017-12-14T08:54:25.964Z,85.20
2017-12-14T08:55:27.840Z,85.01
2017-12-14T08:56:29.727Z,85.01
2017-12-14T08:57:31.602Z,85.11
2017-12-14T08:58:45.804Z,85.20
2017-12-14T08:59:47.680Z,85.39
2017-12-14T09:00:49.567Z,85.30
2017-12-14T09:01:51.444Z,85.77
2017-12-14T09:02:53.262Z,85.20
2017-12-14T09:03:55.089Z,85.11
2017-12-14T09:04:56.965Z,85.20
2017-12-14T09:05:58.851Z,84.72
2017-12-14T09:07:00.727Z,84.53
2017-12-14T09:08:14.938Z,84.06
2017-12-14T09:09:16.816Z,83.68
2017-12-14T09:10:18.702Z,84.16
2017-12-14T09:11:20.582Z,83.97
2017-12-14T09:12:22.408Z,83.68
2017-12-14T09:13:24.224Z,83.39
2017-12-14T09:14:26.100Z,83.39
2017-12-14T09:15:27.985Z,83.39
2017-12-14T09:16:29.862Z,83.49
2017-12-14T09:17:44.075Z,82.26
2017-12-14T09:18:45.953Z,81.97
2017-12-14T09:19:47.850Z,81.87
2017-12-14T09:20:49.724Z,81.59
2017-12-14T09:21:51.552Z,80.35
2017-12-14T09:22:53.383Z,79.27
2017-12-14T09:23:55.260Z,78.42
2017-12-14T09:24:57.137Z,77.37
2017-12-14T09:25:59.017Z,77.66
2017-12-14T09:27:13.170Z,77.09
2017-12-14T09:28:15.051Z,77.47
2017-12-14T09:29:16.929Z,77.37
2017-12-14T09:30:18.805Z,77.75
2017-12-14T09:31:20.635Z,77.37
2017-12-14T09:32:22.474Z,77.37
2017-12-14T09:33:24.341Z,77.66
2017-12-14T09:34:26.230Z,78.03
2017-12-14T09:35:28.113Z,78.13
2017-12-14T09:36:42.269Z,77.37
2017-12-14T09:37:44.147Z,77.94
2017-12-14T09:38:46.034Z,77.37
2017-12-14T09:39:47.915Z,77.47
2017-12-14T09:40:49.733Z,78.42
2017-12-14T09:41:51.561Z,77.37
2017-12-14T09:42:53.437Z,77.37
2017-12-14T09:43:55.326Z,77.51
2017-12-14T09:44:57.205Z,77.12
2017-12-14T09:46:11.356Z,76.37
2017-12-14T09:47:13.238Z,75.79
2017-12-14T09:48:15.115Z,75.51
2017-12-14T09:49:16.993Z,74.94
2017-12-14T09:50:18.823Z,74.03
2017-12-14T09:51:20.640Z,74.41
2017-12-14T09:52:22.527Z,73.93
2017-12-14T09:53:24.415Z,73.27
2017-12-14T09:54:26.305Z,72.89
2017-12-14T09:55:40.457Z,73.14
2017-12-14T09:56:42.336Z,73.18
2017-12-14T09:57:44.215Z,72.70
2017-12-14T09:58:46.106Z,71.84
2017-12-14T09:59:47.925Z,71.37
2017-12-14T10:00:49.744Z,71.08
2017-12-14T10:01:51.624Z,71.56
2017-12-14T10:02:53.507Z,70.99
2017-12-14T10:03:55.383Z,70.99
2017-12-14T10:05:09.543Z,71.37
2017-12-14T10:06:11.417Z,71.18
2017-12-14T10:07:13.310Z,71.46
2017-12-14T10:08:15.184Z,71.27
2017-12-14T10:09:17.002Z,71.56
2017-12-14T10:10:18.832Z,70.70
2017-12-14T10:11:20.709Z,70.54
2017-12-14T10:12:22.600Z,70.45
2017-12-14T10:13:24.477Z,70.83
2017-12-14T10:14:38.632Z,70.17
2017-12-14T10:15:40.511Z,69.79
2017-12-14T10:16:42.401Z,69.60
2017-12-14T10:17:44.278Z,69.56
2017-12-14T10:18:46.107Z,69.66
2017-12-14T10:19:47.937Z,69.56
2017-12-14T10:20:49.816Z,69.85
2017-12-14T10:21:51.704Z,69.85
2017-12-14T10:22:53.586Z,69.56
2017-12-14T10:24:07.739Z,69.85
2017-12-14T10:25:09.621Z,69.75
2017-12-14T10:26:11.498Z,69.37
2017-12-14T10:27:13.380Z,68.61
2017-12-14T10:28:15.199Z,68.61
2017-12-14T10:29:17.027Z,69.18
2017-12-14T10:30:18.906Z,69.18
2017-12-14T10:31:20.785Z,69.09
2017-12-14T10:32:22.665Z,69.09
2017-12-14T10:33:36.819Z,68.71
2017-12-14T10:34:38.703Z,68.71
2017-12-14T10:35:40.576Z,68.13
2017-12-14T10:36:42.468Z,68.13
2017-12-14T10:37:44.286Z,68.13
2017-12-14T10:38:46.117Z,68.71
2017-12-14T10:39:47.994Z,68.61
2017-12-14T10:40:49.885Z,68.04
2017-12-14T10:41:51.766Z,68.13
2017-12-14T10:43:05.929Z,68.52
2017-12-14T10:44:07.819Z,68.42
2017-12-14T10:45:09.706Z,68.13
2017-12-14T10:46:11.594Z,68.04
2017-12-14T10:47:13.412Z,67.94
2017-12-14T10:48:15.232Z,68.33
2017-12-14T10:49:17.110Z,67.47
2017-12-14T10:50:19.000Z,67.28
2017-12-14T10:51:20.880Z,66.61
2017-12-14T10:52:35.045Z,66.14
2017-12-14T10:53:36.923Z,66.61
2017-12-14T10:54:38.811Z,67.38
2017-12-14T10:55:40.692Z,67.28
2017-12-14T10:56:42.522Z,68.90
2017-12-14T10:57:44.339Z,69.18
2017-12-14T10:58:46.229Z,68.86
2017-12-14T10:59:48.117Z,68.58
2017-12-14T11:00:49.996Z,69.66
2017-12-14T11:02:04.160Z,69.56
2017-12-14T11:03:06.038Z,68.90
2017-12-14T11:04:07.922Z,68.67
2017-12-14T11:05:09.797Z,68.77
2017-12-14T11:06:11.617Z,69.34
2017-12-14T11:07:13.433Z,69.05
2017-12-14T11:08:15.320Z,69.34
2017-12-14T11:09:17.196Z,68.96
2017-12-14T11:10:19.119Z,70.29
2017-12-14T11:11:33.236Z,70.00
2017-12-14T11:12:35.112Z,69.05
2017-12-14T11:13:36.999Z,69.71
2017-12-14T11:14:38.951Z,69.15
2017-12-14T11:15:40.851Z,69.15
2017-12-14T11:16:42.813Z,68.96
2017-12-14T11:17:44.730Z,68.48
2017-12-14T11:18:46.608Z,68.58
2017-12-14T11:19:48.489Z,69.34
2017-12-14T11:21:02.652Z,68.96
2017-12-14T11:22:04.534Z,68.99
2017-12-14T11:23:06.412Z,69.46
2017-12-14T11:24:08.292Z,69.09
2017-12-14T11:25:10.123Z,68.99
2017-12-14T11:26:11.952Z,68.77
2017-12-14T11:27:13.839Z,68.71
2017-12-14T11:28:15.765Z,68.90
2017-12-14T11:29:17.673Z,68.48
2017-12-14T11:30:31.887Z,68.96
2017-12-14T11:31:33.773Z,69.56
2017-12-14T11:32:35.660Z,69.81
2017-12-14T11:33:37.550Z,70.00
2017-12-14T11:34:39.403Z,70.95
2017-12-14T11:35:41.195Z,71.71
2017-12-14T11:36:43.082Z,72.09
2017-12-14T11:37:44.982Z,72.56
2017-12-14T11:38:46.885Z,72.95
2017-12-14T11:40:01.039Z,73.80
2017-12-14T11:41:02.915Z,74.27
2017-12-14T11:42:04.801Z,73.71
2017-12-14T11:43:06.689Z,73.96
2017-12-14T11:44:08.500Z,74.27
2017-12-14T11:45:10.328Z,72.95
2017-12-14T11:46:12.206Z,73.33
2017-12-14T11:47:14.095Z,72.75
2017-12-14T11:48:15.980Z,70.95
2017-12-14T11:49:30.133Z,69.40
2017-12-14T11:50:32.023Z,70.15
2017-12-14T11:51:33.910Z,70.92
2017-12-14T11:52:35.787Z,71.30
2017-12-14T11:53:37.615Z,71.58
2017-12-14T11:54:39.443Z,71.58
2017-12-14T11:55:41.326Z,70.92
2017-12-14T11:56:43.201Z,71.30
2017-12-14T11:57:45.089Z,71.58
2017-12-14T11:58:59.238Z,71.39
2017-12-14T12:00:01.112Z,71.67
2017-12-14T12:01:02.997Z,70.92
2017-12-14T12:02:04.889Z,70.82
2017-12-14T12:03:06.708Z,71.01
2017-12-14T12:04:08.519Z,70.44
2017-12-14T12:05:10.407Z,70.73
2017-12-14T12:06:12.281Z,70.63
2017-12-14T12:07:14.168Z,70.63
2017-12-14T12:08:28.331Z,70.92
2017-12-14T12:09:30.207Z,70.86
2017-12-14T12:10:32.084Z,70.92
2017-12-14T12:11:33.960Z,71.11
2017-12-14T12:12:35.777Z,73.29
2017-12-14T12:13:37.602Z,75.09
2017-12-14T12:14:39.489Z,77.09
2017-12-14T12:15:41.366Z,79.08
2017-12-14T12:16:43.253Z,78.99
2017-12-14T12:17:57.412Z,81.41
2017-12-14T12:18:59.286Z,82.17
2017-12-14T12:20:01.171Z,82.08
2017-12-14T12:21:03.047Z,82.36
2017-12-14T12:22:04.863Z,82.65
2017-12-14T12:23:06.686Z,83.03
2017-12-14T12:24:08.587Z,83.40
2017-12-14T12:25:10.457Z,84.26
2017-12-14T12:26:12.338Z,84.55
2017-12-14T12:27:26.490Z,84.07
2017-12-14T12:28:28.364Z,84.45
2017-12-14T12:29:30.248Z,85.11
2017-12-14T12:30:32.126Z,84.74
2017-12-14T12:31:33.967Z,84.83
2017-12-14T12:32:35.774Z,85.11
2017-12-14T12:33:37.662Z,85.30
2017-12-14T12:34:39.536Z,84.36
2017-12-14T12:35:41.414Z,83.88
2017-12-14T12:36:55.608Z,83.59
2017-12-14T12:37:57.519Z,82.55
2017-12-14T12:38:59.363Z,82.27
2017-12-14T12:40:01.257Z,82.46
2017-12-14T12:41:03.077Z,82.84
2017-12-14T12:42:04.894Z,83.31
2017-12-14T12:43:06.773Z,83.69
2017-12-14T12:44:08.652Z,82.93
2017-12-14T12:45:10.544Z,82.84
2017-12-14T12:46:24.710Z,82.93
2017-12-14T12:47:26.578Z,83.31
2017-12-14T12:48:28.462Z,83.12
2017-12-14T12:49:30.341Z,83.26
2017-12-14T12:50:32.196Z,82.40
2017-12-14T12:51:34.006Z,81.45
2017-12-14T12:52:35.886Z,81.17
2017-12-14T12:53:37.767Z,81.26
2017-12-14T12:54:39.647Z,78.42
2017-12-14T12:55:53.883Z,78.23
2017-12-14T12:56:55.814Z,77.47
2017-12-14T12:57:57.698Z,76.04
2017-12-14T12:58:59.588Z,74.90
2017-12-14T13:00:01.414Z,74.15
2017-12-14T13:01:03.241Z,72.00
2017-12-14T13:02:05.129Z,70.82
2017-12-14T13:03:07.025Z,70.95
2017-12-14T13:04:08.918Z,70.48
2017-12-14T13:05:23.065Z,69.34
2017-12-14T13:06:25.086Z,69.05
2017-12-14T13:07:27.526Z,68.96
2017-12-14T13:08:29.367Z,68.48
2017-12-14T13:09:31.192Z,67.44
2017-12-14T13:10:33.006Z,66.67
2017-12-14T13:11:34.906Z,66.49
2017-12-14T13:12:36.966Z,66.30
2017-12-14T13:13:38.940Z,66.01
2017-12-14T13:14:53.090Z,66.20
2017-12-14T13:15:54.968Z,66.30
2017-12-14T13:16:56.854Z,64.94
2017-12-14T13:17:58.732Z,65.98
2017-12-14T13:19:00.553Z,65.73
2017-12-14T13:20:02.377Z,66.17
2017-12-14T13:21:04.254Z,65.88
2017-12-14T13:22:06.154Z,65.12
2017-12-14T13:23:08.077Z,64.46
2017-12-14T13:24:22.863Z,64.69
2017-12-14T13:25:24.728Z,64.75
2017-12-14T13:26:26.614Z,64.56
2017-12-14T13:27:28.606Z,64.65
2017-12-14T13:28:30.412Z,64.08
2017-12-14T13:29:32.230Z,64.65
2017-12-14T13:30:34.114Z,64.56
2017-12-14T13:31:35.987Z,64.75
2017-12-14T13:32:37.869Z,64.94
2017-12-14T13:33:52.033Z,64.46